createdAt,value
2022-10-07T00:00:12.639Z,1024.63
2022-10-07T00:10:12.752Z,1024.70
2022-10-07T00:20:12.853Z,1024.64
2022-10-07T00:30:12.967Z,1024.65
2022-10-07T00:40:12.988Z,1024.48
2022-10-07T00:50:13.294Z,1024.51
2022-10-07T01:00:13.343Z,1024.52
2022-10-07T01:10:13.642Z,1024.43
2022-10-07T01:20:13.672Z,1024.39
2022-10-07T01:30:14.005Z,1024.30
2022-10-07T01:40:14.037Z,1024.25
2022-10-07T01:50:14.353Z,1024.24
2022-10-07T02:00:14.372Z,1024.16
2022-10-07T02:10:14.696Z,1024.05
2022-10-07T02:20:14.727Z,1023.92
2022-10-07T02:30:15.042Z,1023.89
2022-10-07T02:40:15.064Z,1023.82
2022-10-07T02:50:15.388Z,1023.75
2022-10-07T03:00:15.494Z,1023.61
2022-10-07T03:10:15.654Z,1023.60
2022-10-07T03:20:15.668Z,1023.63
2022-10-07T03:30:16.182Z,1023.63
2022-10-07T03:40:15.988Z,1023.56
2022-10-07T03:50:16.350Z,1023.55
2022-10-07T04:00:16.375Z,1023.58
2022-10-07T04:10:16.692Z,1023.54
2022-10-07T04:20:16.711Z,1023.53
2022-10-07T04:30:17.041Z,1023.45
2022-10-07T04:40:17.070Z,1023.50
2022-10-07T04:50:17.402Z,1023.46
2022-10-07T05:00:17.417Z,1023.47
2022-10-07T05:10:17.737Z,1023.40
2022-10-07T05:20:17.765Z,1023.39
2022-10-07T05:30:18.096Z,1023.37
2022-10-07T05:40:18.155Z,1023.45
2022-10-07T05:50:18.440Z,1023.35
2022-10-07T06:00:18.469Z,1023.42
2022-10-07T06:10:18.793Z,1023.33
2022-10-07T06:20:18.820Z,1023.41
2022-10-07T06:30:19.127Z,1023.44
2022-10-07T06:40:19.167Z,1023.53
2022-10-07T06:50:19.491Z,1023.56
2022-10-07T07:00:19.513Z,1023.51
2022-10-07T07:10:19.837Z,1023.52
2022-10-07T07:20:19.890Z,1023.54
2022-10-07T07:30:20.208Z,1023.58
2022-10-07T07:40:20.235Z,1023.44
2022-10-07T07:50:20.536Z,1023.41
2022-10-07T08:00:20.556Z,1023.32
2022-10-07T08:10:20.887Z,1023.34
2022-10-07T08:20:20.922Z,1023.35
2022-10-07T08:30:21.249Z,1023.31
2022-10-07T08:40:21.345Z,1023.11
2022-10-07T08:50:21.490Z,1022.94
2022-10-07T09:00:21.564Z,1022.90
2022-10-07T09:10:21.629Z,1022.84
2022-10-07T09:20:21.882Z,1022.63
2022-10-07T09:30:22.191Z,1022.53
2022-10-07T09:40:22.211Z,1022.44
2022-10-07T09:50:22.525Z,1022.45
2022-10-07T10:00:22.545Z,1022.28
2022-10-07T10:10:22.881Z,1022.18
2022-10-07T10:20:22.995Z,1021.97
2022-10-07T10:30:23.124Z,1021.85
2022-10-07T10:40:23.151Z,1021.77
2022-10-07T10:50:23.488Z,1021.73
2022-10-07T11:00:23.526Z,1021.51
2022-10-07T11:10:23.846Z,1021.43
2022-10-07T11:20:24.020Z,1021.23
2022-10-07T11:30:24.084Z,1021.14
2022-10-07T11:40:28.799Z,1021.02
2022-10-07T11:50:24.507Z,1020.78
2022-10-07T12:00:24.804Z,1020.70
2022-10-07T12:10:24.852Z,1020.61
2022-10-07T12:20:25.158Z,1020.42
2022-10-07T12:30:25.190Z,1020.29
2022-10-07T12:40:25.513Z,1020.03
2022-10-07T12:50:25.550Z,1019.98
2022-10-07T13:00:25.854Z,1019.93
2022-10-07T13:10:25.891Z,1019.83
2022-10-07T13:20:26.213Z,1019.77
2022-10-07T13:30:26.247Z,1019.64
2022-10-07T13:40:26.646Z,1019.65
2022-10-07T13:50:26.678Z,1019.58
2022-10-07T14:00:27.007Z,1019.55
2022-10-07T14:10:27.030Z,1019.40
2022-10-07T14:20:27.392Z,1019.38
2022-10-07T14:30:27.448Z,1019.37
2022-10-07T14:40:27.810Z,1019.31
2022-10-07T14:50:27.840Z,1019.14
2022-10-07T15:00:28.162Z,1019.09
2022-10-07T15:10:28.202Z,1018.87
2022-10-07T15:20:28.518Z,1018.93
2022-10-07T15:30:28.544Z,1018.87
2022-10-07T15:40:28.854Z,1018.79
2022-10-07T15:50:28.903Z,1018.67
2022-10-07T16:00:29.205Z,1018.64
2022-10-07T16:10:29.276Z,1018.59
2022-10-07T16:20:29.564Z,1018.62
2022-10-07T16:30:29.584Z,1018.60
2022-10-07T16:40:29.910Z,1018.63
2022-10-07T16:50:29.936Z,1018.56
2022-10-07T17:00:30.260Z,1018.58
2022-10-07T17:10:30.279Z,1018.65
2022-10-07T17:20:30.612Z,1018.68
2022-10-07T17:30:30.635Z,1018.66
2022-10-07T17:40:30.954Z,1018.75
2022-10-07T17:50:30.985Z,1018.74
2022-10-07T18:00:31.495Z,1018.79
2022-10-07T18:10:31.362Z,1018.77
2022-10-07T18:20:31.664Z,1018.78
2022-10-07T18:30:31.826Z,1018.71
2022-10-07T18:40:32.092Z,1018.69
2022-10-07T18:50:33.673Z,1018.69
2022-10-07T19:00:32.548Z,1018.64
2022-10-07T19:10:37.320Z,1018.71
2022-10-07T19:20:32.647Z,1018.81
2022-10-07T19:30:32.987Z,1018.74
2022-10-07T19:40:33.015Z,1018.69
2022-10-07T19:50:33.359Z,1018.69
2022-10-07T20:00:33.385Z,1018.71
2022-10-07T20:10:33.688Z,1018.69
2022-10-07T20:20:33.717Z,1018.65
2022-10-07T20:30:33.943Z,1018.57
2022-10-07T20:40:34.203Z,1018.52
2022-10-07T20:50:34.435Z,1018.57
2022-10-07T21:00:34.761Z,1018.62
2022-10-07T21:10:34.804Z,1018.58
2022-10-07T21:20:35.118Z,1018.56
2022-10-07T21:30:35.201Z,1018.55
2022-10-07T21:40:35.360Z,1018.62
2022-10-07T21:50:35.399Z,1018.67
2022-10-07T22:00:35.715Z,1018.60
2022-10-07T22:10:35.746Z,1018.55
2022-10-07T22:20:36.176Z,1018.60
2022-10-07T22:30:36.240Z,1018.55
2022-10-07T22:40:36.628Z,1018.52
2022-10-07T22:50:36.657Z,1018.48
2022-10-07T23:00:36.961Z,1018.27
2022-10-07T23:10:36.984Z,1018.30
2022-10-07T23:20:37.306Z,1018.25
2022-10-07T23:30:37.344Z,1018.23
2022-10-07T23:40:37.871Z,1018.29
2022-10-07T23:50:37.712Z,1018.22
